createdAt,value
2022-10-11T00:02:05.640Z,6.70
2022-10-11T00:04:32.350Z,16.30
2022-10-11T00:06:59.198Z,9.35
2022-10-11T00:09:25.909Z,8.17
2022-10-11T00:11:56.077Z,24.17
2022-10-11T00:14:24.828Z,18.75
2022-10-11T00:16:51.805Z,11.32
2022-10-11T00:19:18.674Z,7.78
2022-10-11T00:21:45.776Z,14.47
2022-10-11T00:24:13.548Z,13.77
2022-10-11T00:29:13.277Z,3.25
2022-10-11T00:31:40.312Z,8.20
2022-10-11T00:34:07.386Z,12.40
2022-10-11T00:36:34.386Z,10.63
2022-10-11T00:39:01.067Z,11.82
2022-10-11T00:41:27.753Z,11.80
2022-10-11T00:44:20.061Z,21.83
2022-10-11T00:46:58.147Z,7.75
2022-10-11T00:49:38.097Z,10.63
2022-10-11T00:52:28.914Z,8.48
2022-10-11T00:54:58.056Z,16.85
2022-10-11T00:57:27.878Z,12.77
2022-10-11T00:59:55.767Z,5.38
2022-10-11T01:02:24.178Z,12.13
2022-10-11T01:05:05.664Z,13.68
2022-10-11T01:07:39.146Z,10.38
2022-10-11T01:10:06.192Z,17.13
2022-10-11T01:12:33.336Z,6.60
2022-10-11T01:15:33.264Z,11.43
2022-10-11T01:18:07.737Z,15.15
2022-10-11T01:20:38.280Z,4.25
2022-10-11T01:23:15.500Z,11.30
2022-10-11T01:26:07.757Z,21.92
2022-10-11T01:28:51.022Z,17.17
2022-10-11T01:31:36.921Z,12.77
2022-10-11T01:34:09.349Z,9.35
2022-10-11T01:36:44.849Z,17.40
2022-10-11T01:39:42.221Z,11.65
2022-10-11T01:42:11.865Z,8.55
2022-10-11T01:44:40.775Z,10.73
2022-10-11T01:47:08.276Z,5.55
2022-10-11T01:49:34.959Z,6.47
2022-10-11T01:52:05.343Z,14.88
2022-10-11T01:55:09.626Z,13.40
2022-10-11T01:57:55.595Z,11.80
2022-10-11T02:00:23.911Z,7.47
2022-10-11T02:03:15.334Z,11.88
2022-10-11T02:06:01.011Z,19.23
2022-10-11T02:08:41.913Z,17.17
2022-10-11T02:11:35.449Z,10.07
2022-10-11T02:14:13.118Z,16.08
2022-10-11T02:16:46.312Z,8.07
2022-10-11T02:19:18.693Z,8.70
2022-10-11T02:21:52.365Z,7.28
2022-10-11T02:24:27.419Z,13.15
2022-10-11T02:26:57.214Z,7.15
2022-10-11T02:29:26.890Z,10.70
2022-10-11T02:31:56.520Z,12.02
2022-10-11T02:34:31.717Z,10.20
2022-10-11T02:37:24.539Z,10.65
2022-10-11T02:40:06.449Z,12.18
2022-10-11T02:42:46.793Z,4.22
2022-10-11T02:45:18.326Z,9.65
2022-10-11T02:47:45.597Z,6.80
2022-10-11T02:50:14.186Z,7.80
2022-10-11T02:52:41.155Z,16.13
2022-10-11T02:55:08.667Z,16.00
2022-10-11T02:57:35.576Z,15.05
2022-10-11T03:00:02.532Z,9.50
2022-10-11T03:02:29.346Z,19.45
2022-10-11T03:04:56.047Z,14.32
2022-10-11T03:07:22.838Z,15.30
2022-10-11T03:09:49.576Z,10.60
2022-10-11T03:12:16.362Z,21.02
2022-10-11T03:14:43.118Z,12.77
2022-10-11T03:17:34.644Z,11.20
2022-10-11T03:19:56.529Z,11.70
2022-10-11T03:22:23.270Z,7.70
2022-10-11T03:24:49.982Z,12.57
2022-10-11T03:27:16.849Z,9.30
2022-10-11T03:29:43.593Z,7.63
2022-10-11T03:32:10.443Z,19.20
2022-10-11T03:34:37.135Z,13.97
2022-10-11T03:37:03.795Z,10.57
2022-10-11T03:39:30.547Z,11.30
2022-10-11T03:41:57.282Z,13.50
2022-10-11T03:44:24.083Z,12.70
2022-10-11T03:46:50.737Z,7.65
2022-10-11T03:49:17.490Z,18.25
2022-10-11T03:51:44.137Z,10.90
2022-10-11T03:54:10.816Z,9.57
2022-10-11T03:56:37.595Z,9.52
2022-10-11T03:59:04.440Z,14.50
2022-10-11T04:01:31.290Z,9.17
2022-10-11T04:03:58.037Z,12.10
2022-10-11T04:06:24.833Z,23.92
2022-10-11T04:08:51.519Z,12.80
2022-10-11T04:11:18.174Z,23.80
2022-10-11T04:13:44.861Z,7.57
2022-10-11T04:16:11.676Z,17.38
2022-10-11T04:18:38.359Z,8.73
2022-10-11T04:21:05.159Z,12.52
2022-10-11T04:23:32.418Z,11.83
2022-10-11T04:25:59.138Z,6.15
2022-10-11T04:28:25.970Z,36.03
2022-10-11T04:30:54.147Z,9.67
2022-10-11T04:33:20.856Z,12.98
2022-10-11T04:35:47.552Z,5.45
2022-10-11T04:38:14.302Z,10.48
2022-10-11T04:40:41.019Z,14.52
2022-10-11T04:43:07.770Z,8.07
2022-10-11T04:45:34.521Z,24.75
2022-10-11T04:48:01.305Z,19.80
2022-10-11T04:50:28.051Z,13.50
2022-10-11T04:52:57.472Z,7.13
2022-10-11T04:55:24.139Z,29.03
2022-10-11T04:57:50.972Z,9.88
2022-10-11T05:00:17.812Z,11.60
2022-10-11T05:02:44.521Z,6.70
2022-10-11T05:05:11.452Z,21.60
2022-10-11T05:07:38.545Z,8.32
2022-10-11T05:10:05.717Z,6.18
2022-10-11T05:12:32.427Z,14.02
2022-10-11T05:14:59.790Z,12.05
2022-10-11T05:17:26.618Z,4.28
2022-10-11T05:19:53.283Z,24.60
2022-10-11T05:22:20.008Z,16.45
2022-10-11T05:24:46.665Z,5.88
2022-10-11T05:27:13.385Z,8.70
2022-10-11T05:29:40.088Z,9.77
2022-10-11T05:32:06.869Z,6.93
2022-10-11T05:34:33.688Z,10.23
2022-10-11T05:37:00.470Z,5.93
2022-10-11T05:39:27.216Z,10.85
2022-10-11T05:41:54.186Z,7.97
2022-10-11T05:44:20.824Z,6.63
2022-10-11T05:46:47.552Z,17.80
2022-10-11T05:49:14.193Z,14.57
2022-10-11T05:51:40.902Z,13.55
2022-10-11T05:54:07.603Z,10.63
2022-10-11T05:56:34.303Z,8.15
2022-10-11T05:59:02.576Z,12.40
2022-10-11T06:01:29.560Z,9.52
2022-10-11T06:03:56.309Z,16.83
2022-10-11T06:06:23.068Z,16.55
2022-10-11T06:08:49.836Z,10.50
2022-10-11T06:11:24.568Z,8.67
2022-10-11T06:13:54.295Z,5.43
2022-10-11T06:16:21.130Z,14.45
2022-10-11T06:18:47.829Z,14.23
2022-10-11T06:21:15.430Z,6.70
2022-10-11T06:23:42.396Z,5.40
2022-10-11T06:26:10.556Z,6.85
2022-10-11T06:28:37.598Z,6.57
2022-10-11T06:31:05.566Z,13.85
2022-10-11T06:33:32.884Z,9.07
2022-10-11T06:36:01.810Z,12.27
2022-10-11T06:38:28.658Z,23.40
2022-10-11T06:40:55.303Z,22.40
2022-10-11T06:43:22.611Z,6.70
2022-10-11T06:45:49.518Z,18.60
2022-10-11T06:48:16.281Z,26.85
2022-10-11T06:50:59.146Z,13.82
2022-10-11T06:53:27.183Z,6.05
2022-10-11T06:58:20.696Z,23.07
2022-10-11T07:00:47.487Z,13.03
2022-10-11T07:03:14.232Z,11.32
2022-10-11T07:05:40.873Z,16.20
2022-10-11T07:08:07.663Z,14.68
2022-10-11T07:10:36.262Z,12.52
2022-10-11T07:13:03.104Z,7.82
2022-10-11T07:15:29.801Z,13.83
2022-10-11T07:17:56.542Z,9.73
2022-10-11T07:20:23.206Z,12.35
2022-10-11T07:22:49.887Z,22.77
2022-10-11T07:25:16.636Z,34.22
2022-10-11T07:27:43.354Z,15.93
2022-10-11T07:30:10.498Z,17.50
2022-10-11T07:32:37.246Z,26.42
2022-10-11T07:35:04.196Z,19.95
2022-10-11T07:37:30.922Z,19.48
2022-10-11T07:39:57.573Z,30.33
2022-10-11T07:42:24.263Z,31.25
2022-10-11T07:44:50.890Z,31.77
2022-10-11T07:47:17.558Z,38.17
2022-10-11T07:49:44.199Z,32.90
2022-10-11T07:52:11.166Z,26.38
2022-10-11T07:54:39.978Z,60.55
2022-10-11T07:57:06.723Z,54.80
2022-10-11T07:59:33.493Z,52.85
2022-10-11T08:02:00.313Z,43.65
2022-10-11T08:04:27.115Z,50.37
2022-10-11T08:06:53.836Z,64.50
2022-10-11T08:09:20.496Z,36.95
2022-10-11T08:11:47.189Z,52.20
2022-10-11T08:14:13.850Z,75.25
2022-10-11T08:16:40.822Z,73.70
2022-10-11T08:19:07.595Z,71.18
2022-10-11T08:21:34.773Z,53.50
2022-10-11T08:24:03.500Z,53.75
2022-10-11T08:26:30.655Z,49.92
2022-10-11T08:28:58.629Z,52.40
2022-10-11T08:31:25.444Z,43.40
2022-10-11T08:33:52.102Z,44.03
2022-10-11T08:36:18.830Z,42.17
2022-10-11T08:38:45.697Z,35.20
2022-10-11T08:41:20.781Z,36.25
2022-10-11T08:43:54.173Z,40.50
2022-10-11T08:46:26.548Z,33.90
2022-10-11T08:48:54.192Z,20.95
2022-10-11T08:51:43.256Z,28.40
2022-10-11T08:54:18.839Z,34.92
2022-10-11T08:56:45.906Z,35.97
2022-10-11T08:59:12.624Z,29.08
2022-10-11T09:01:47.434Z,28.50
2022-10-11T09:04:15.949Z,27.42
2022-10-11T09:07:08.726Z,17.17
2022-10-11T09:10:03.174Z,18.60
2022-10-11T09:12:41.214Z,20.13
2022-10-11T09:15:40.204Z,18.90
2022-10-11T09:18:40.907Z,9.85
2022-10-11T09:21:37.978Z,17.33
2022-10-11T09:27:10.264Z,14.52
2022-10-11T09:30:14.591Z,13.77
2022-10-11T09:32:49.923Z,8.70
2022-10-11T09:35:22.410Z,14.90
2022-10-11T09:38:07.426Z,20.98
2022-10-11T09:40:48.507Z,17.20
2022-10-11T09:43:15.203Z,10.93
2022-10-11T09:45:49.136Z,12.07
2022-10-11T09:48:30.691Z,16.00
2022-10-11T09:51:04.594Z,13.32
2022-10-11T09:53:55.104Z,14.57
2022-10-11T09:56:24.860Z,7.70
2022-10-11T09:59:29.538Z,11.27
2022-10-11T10:02:22.074Z,7.53
2022-10-11T10:05:21.104Z,5.07
2022-10-11T10:08:22.470Z,6.32
2022-10-11T10:11:06.727Z,12.93
2022-10-11T10:13:55.853Z,14.38
2022-10-11T10:16:28.012Z,8.43
2022-10-11T10:19:07.147Z,9.73
2022-10-11T10:21:43.472Z,5.15
2022-10-11T10:24:30.227Z,8.52
2022-10-11T10:27:10.505Z,13.30
2022-10-11T10:29:37.903Z,10.07
2022-10-11T10:35:06.853Z,6.13
2022-10-11T10:37:43.104Z,11.55
2022-10-11T10:40:18.242Z,7.18
2022-10-11T10:42:46.487Z,3.67
2022-10-11T10:45:21.421Z,10.13
2022-10-11T10:48:23.501Z,6.28
2022-10-11T10:50:58.770Z,11.18
2022-10-11T10:53:30.825Z,7.82
2022-10-11T10:56:19.120Z,6.45
2022-10-11T10:59:36.700Z,4.47
2022-10-11T11:05:27.187Z,1.60
2022-10-11T11:08:22.146Z,7.32
2022-10-11T11:11:24.501Z,6.63
2022-10-11T11:14:27.203Z,5.25
2022-10-11T11:17:01.719Z,7.32
2022-10-11T11:19:41.319Z,5.18
2022-10-11T11:22:32.750Z,8.55
2022-10-11T11:25:28.840Z,10.10
2022-10-11T11:28:33.313Z,5.43
2022-10-11T11:31:07.574Z,11.27
2022-10-11T11:33:49.904Z,6.50
2022-10-11T11:36:41.296Z,10.77
2022-10-11T11:39:16.724Z,6.45
2022-10-11T11:41:52.143Z,4.70
2022-10-11T11:44:27.843Z,12.32
2022-10-11T11:47:11.912Z,8.25
2022-10-11T11:50:23.263Z,7.80
2022-10-11T11:53:04.977Z,6.53
2022-10-11T11:55:49.127Z,7.55
2022-10-11T11:58:27.980Z,6.45
2022-10-11T12:00:58.673Z,9.88
2022-10-11T12:03:33.880Z,9.18
2022-10-11T12:06:14.998Z,4.28
2022-10-11T12:08:46.586Z,6.03
2022-10-11T12:11:34.552Z,10.18
2022-10-11T12:14:34.836Z,8.23
2022-10-11T12:17:18.868Z,12.15
2022-10-11T12:20:14.616Z,9.25
2022-10-11T12:22:52.762Z,4.15
2022-10-11T12:25:22.497Z,7.70
2022-10-11T12:27:57.397Z,11.38
2022-10-11T12:30:50.770Z,8.13
2022-10-11T12:33:21.320Z,6.55
2022-10-11T12:35:54.084Z,10.07
2022-10-11T12:38:23.681Z,7.38
2022-10-11T12:41:00.494Z,14.57
2022-10-11T12:43:49.065Z,10.98
2022-10-11T12:46:31.137Z,19.83
2022-10-11T12:49:13.115Z,7.53
2022-10-11T12:51:58.264Z,5.95
2022-10-11T12:54:52.595Z,5.28
2022-10-11T12:58:09.733Z,9.35
2022-10-11T13:00:51.664Z,9.43
2022-10-11T13:03:39.284Z,2.45
2022-10-11T13:06:24.870Z,12.30
2022-10-11T13:09:05.147Z,24.52
2022-10-11T13:11:36.038Z,14.70
2022-10-11T13:14:16.236Z,17.05
2022-10-11T13:16:48.515Z,16.58
2022-10-11T13:19:16.001Z,11.27
2022-10-11T13:24:14.143Z,15.35
2022-10-11T13:26:42.875Z,9.10
2022-10-11T13:29:48.764Z,6.18
2022-10-11T13:32:21.831Z,6.83
2022-10-11T13:34:52.500Z,14.35
2022-10-11T13:37:22.734Z,9.38
2022-10-11T13:39:52.260Z,6.22
2022-10-11T13:42:21.195Z,10.63
2022-10-11T13:44:48.075Z,8.98
2022-10-11T13:47:18.211Z,2.47
2022-10-11T13:49:48.027Z,9.65
2022-10-11T13:52:17.657Z,18.98
2022-10-11T13:54:53.414Z,18.63
2022-10-11T13:57:47.997Z,9.05
2022-10-11T14:00:14.749Z,16.70
2022-10-11T14:02:51.775Z,11.38
2022-10-11T14:05:30.224Z,7.07
2022-10-11T14:07:59.665Z,12.55
2022-10-11T14:10:27.677Z,10.45
2022-10-11T14:13:31.327Z,8.02
2022-10-11T14:16:12.804Z,14.18
2022-10-11T14:18:51.228Z,5.07
2022-10-11T14:21:33.075Z,9.25
2022-10-11T14:24:04.877Z,7.55
2022-10-11T14:26:46.951Z,4.72
2022-10-11T14:29:28.487Z,7.60
2022-10-11T14:32:05.023Z,5.90
2022-10-11T14:34:32.329Z,3.93
2022-10-11T14:36:59.055Z,1.48
2022-10-11T14:39:28.047Z,5.05
2022-10-11T14:41:55.238Z,2.72
2022-10-11T14:44:22.990Z,5.78
2022-10-11T14:49:26.167Z,9.20
2022-10-11T14:51:55.460Z,3.42
2022-10-11T14:54:23.685Z,12.70
2022-10-11T14:56:55.426Z,1.20
2022-10-11T14:59:25.235Z,16.88
2022-10-11T15:01:53.857Z,11.77
2022-10-11T15:04:21.882Z,7.78
2022-10-11T15:06:48.920Z,7.07
2022-10-11T15:09:16.998Z,8.27
2022-10-11T15:11:43.707Z,8.82
2022-10-11T15:14:10.389Z,7.73
2022-10-11T15:16:37.169Z,4.03
2022-10-11T15:19:04.141Z,2.90
2022-10-11T15:21:31.411Z,6.30
2022-10-11T15:23:58.394Z,12.18
2022-10-11T15:26:27.538Z,7.57
2022-10-11T15:28:56.317Z,3.65
2022-10-11T15:31:23.575Z,2.65
2022-10-11T15:33:50.470Z,5.32
2022-10-11T15:36:22.405Z,4.05
2022-10-11T15:38:49.685Z,3.78
2022-10-11T15:41:18.954Z,7.03
2022-10-11T15:43:47.650Z,13.52
2022-10-11T15:46:17.992Z,3.53
2022-10-11T15:48:45.453Z,5.57
2022-10-11T15:51:12.384Z,8.95
2022-10-11T15:53:39.147Z,4.47
2022-10-11T15:56:09.242Z,5.33
2022-10-11T15:58:39.171Z,6.82
2022-10-11T16:01:09.137Z,2.53
2022-10-11T16:03:36.239Z,5.43
2022-10-11T16:06:05.605Z,2.93
2022-10-11T16:08:33.419Z,11.52
2022-10-11T16:11:00.609Z,3.13
2022-10-11T16:13:27.308Z,3.50
2022-10-11T16:15:54.165Z,8.63
2022-10-11T16:18:22.019Z,8.57
2022-10-11T16:20:51.692Z,6.00
2022-10-11T16:23:19.940Z,16.80
2022-10-11T16:25:47.729Z,4.10
2022-10-11T16:28:14.533Z,8.73
2022-10-11T16:30:45.257Z,2.92
2022-10-11T16:33:12.170Z,11.40
2022-10-11T16:35:42.610Z,5.57
2022-10-11T16:38:10.195Z,5.93
2022-10-11T16:40:38.246Z,8.43
2022-10-11T16:43:07.960Z,12.65
2022-10-11T16:45:35.290Z,7.93
2022-10-11T16:48:02.451Z,8.35
2022-10-11T16:50:29.278Z,5.05
2022-10-11T16:52:56.219Z,8.60
2022-10-11T16:55:23.132Z,5.50
2022-10-11T16:57:49.746Z,7.63
2022-10-11T17:00:16.784Z,6.38
2022-10-11T17:02:43.456Z,7.47
2022-10-11T17:05:10.159Z,10.65
2022-10-11T17:07:36.858Z,4.28
2022-10-11T17:10:04.249Z,8.00
2022-10-11T17:12:31.880Z,5.53
2022-10-11T17:14:58.623Z,2.83
2022-10-11T17:17:25.338Z,4.68
2022-10-11T17:19:51.990Z,10.10
2022-10-11T17:22:19.970Z,10.70
2022-10-11T17:24:46.679Z,12.07
2022-10-11T17:27:13.716Z,10.20
2022-10-11T17:29:40.443Z,5.68
2022-10-11T17:32:07.197Z,4.97
2022-10-11T17:34:34.580Z,9.00
2022-10-11T17:37:04.029Z,5.85
2022-10-11T17:39:30.777Z,4.88
2022-10-11T17:41:57.474Z,9.50
2022-10-11T17:44:24.246Z,6.78
2022-10-11T17:46:51.012Z,5.73
2022-10-11T17:49:17.702Z,3.57
2022-10-11T17:51:44.629Z,5.35
2022-10-11T17:54:12.670Z,7.78
2022-10-11T17:56:41.328Z,11.82
2022-10-11T17:59:14.229Z,6.75
2022-10-11T18:01:41.200Z,6.40
2022-10-11T18:04:10.066Z,8.20
2022-10-11T18:06:39.458Z,6.18
2022-10-11T18:09:06.406Z,6.82
2022-10-11T18:11:33.728Z,2.92
2022-10-11T18:14:00.831Z,4.43
2022-10-11T18:16:29.696Z,2.80
2022-10-11T18:18:58.103Z,8.50
2022-10-11T18:21:29.964Z,6.28
2022-10-11T18:24:02.885Z,10.23
2022-10-11T18:26:30.891Z,6.65
2022-10-11T18:28:58.729Z,6.50
2022-10-11T18:33:56.277Z,8.23
2022-10-11T18:36:26.029Z,9.40
2022-10-11T18:38:55.858Z,9.07
2022-10-11T18:41:24.377Z,14.27
2022-10-11T18:43:55.708Z,9.48
2022-10-11T18:46:23.715Z,17.05
2022-10-11T18:48:52.597Z,4.57
2022-10-11T18:51:22.519Z,9.77
2022-10-11T18:53:49.631Z,5.28
2022-10-11T18:56:17.896Z,6.70
2022-10-11T18:58:44.790Z,5.68
2022-10-11T19:01:18.046Z,12.53
2022-10-11T19:03:46.709Z,9.23
2022-10-11T19:06:17.539Z,8.27
2022-10-11T19:08:45.608Z,9.15
2022-10-11T19:11:13.062Z,6.85
2022-10-11T19:13:40.359Z,5.80
2022-10-11T19:16:10.099Z,5.90
2022-10-11T19:18:41.741Z,5.60
2022-10-11T19:21:12.759Z,9.45
2022-10-11T19:23:41.572Z,4.72
2022-10-11T19:26:23.218Z,6.78
2022-10-11T19:28:56.754Z,10.75
2022-10-11T19:31:24.249Z,11.25
2022-10-11T19:33:51.420Z,4.63
2022-10-11T19:36:18.572Z,9.45
2022-10-11T19:38:48.126Z,11.48
2022-10-11T19:41:18.749Z,7.20
2022-10-11T19:43:46.002Z,6.80
2022-10-11T19:46:27.396Z,14.68
2022-10-11T19:49:03.404Z,8.32
2022-10-11T19:54:07.856Z,7.95
2022-10-11T19:56:35.566Z,9.60
2022-10-11T19:59:06.230Z,10.43
2022-10-11T20:01:35.234Z,7.97
2022-10-11T20:04:05.325Z,7.78
2022-10-11T20:06:38.391Z,7.10
2022-10-11T20:11:54.396Z,5.10
2022-10-11T20:14:21.370Z,9.50
2022-10-11T20:16:50.599Z,9.27
2022-10-11T20:19:18.027Z,7.43
2022-10-11T20:21:45.453Z,4.22
2022-10-11T20:24:15.335Z,6.95
2022-10-11T20:26:42.724Z,6.70
2022-10-11T20:29:09.833Z,5.45
2022-10-11T20:31:41.880Z,8.05
2022-10-11T20:34:09.758Z,8.68
2022-10-11T20:36:36.746Z,8.38
2022-10-11T20:39:05.236Z,5.63
2022-10-11T20:41:36.832Z,7.40
2022-10-11T20:44:04.841Z,8.15
2022-10-11T20:46:34.632Z,6.90
2022-10-11T20:49:10.688Z,5.90
2022-10-11T20:51:39.197Z,13.88
2022-10-11T20:54:06.680Z,6.70
2022-10-11T20:56:34.347Z,8.52
2022-10-11T20:59:02.012Z,8.82
2022-10-11T21:01:35.677Z,7.38
2022-10-11T21:04:03.854Z,6.70
2022-10-11T21:06:32.567Z,11.15
2022-10-11T21:09:02.940Z,8.43
2022-10-11T21:11:31.894Z,8.73
2022-10-11T21:14:03.891Z,5.75
2022-10-11T21:16:31.703Z,6.82
2022-10-11T21:23:55.605Z,27.25
2022-10-11T21:26:22.940Z,11.15
2022-10-11T21:28:50.051Z,15.05
2022-10-11T21:31:20.257Z,8.73
2022-10-11T21:33:47.980Z,9.70
2022-10-11T21:38:52.929Z,11.73
2022-10-11T21:41:25.508Z,8.48
2022-10-11T21:43:52.639Z,10.65
2022-10-11T21:46:22.949Z,11.93
2022-10-11T21:48:50.147Z,8.77
2022-10-11T21:51:30.610Z,14.88
2022-10-11T21:54:00.449Z,10.18
2022-10-11T21:56:28.155Z,5.55
2022-10-11T22:01:22.442Z,10.93
2022-10-11T22:03:50.229Z,15.43
2022-10-11T22:06:17.445Z,8.52
2022-10-11T22:08:44.584Z,5.20
2022-10-11T22:11:12.187Z,8.57
2022-10-11T22:13:39.044Z,6.88
2022-10-11T22:16:08.025Z,7.60
2022-10-11T22:18:35.647Z,8.52
2022-10-11T22:21:18.390Z,8.23
2022-10-11T22:23:47.448Z,9.05
2022-10-11T22:26:17.032Z,10.23
2022-10-11T22:28:44.279Z,12.40
2022-10-11T22:31:11.073Z,6.97
2022-10-11T22:33:40.608Z,7.75
2022-10-11T22:36:09.818Z,5.85
2022-10-11T22:38:38.680Z,10.27
2022-10-11T22:41:05.842Z,8.52
2022-10-11T22:43:33.203Z,3.67
2022-10-11T22:46:00.366Z,8.93
2022-10-11T22:48:27.282Z,6.80
2022-10-11T22:50:54.531Z,12.82
2022-10-11T22:53:21.872Z,7.32
2022-10-11T22:55:48.855Z,3.97
2022-10-11T22:58:15.897Z,8.18
2022-10-11T23:00:46.174Z,5.80
2022-10-11T23:03:15.752Z,8.85
2022-10-11T23:05:42.837Z,7.65
2022-10-11T23:08:10.092Z,9.90
2022-10-11T23:10:40.530Z,9.30
2022-10-11T23:13:07.773Z,7.97
2022-10-11T23:15:39.115Z,6.28
2022-10-11T23:18:06.032Z,4.55
2022-10-11T23:20:32.781Z,7.47
2022-10-11T23:23:00.069Z,11.82
2022-10-11T23:25:26.925Z,19.03
2022-10-11T23:27:54.803Z,7.82
2022-10-11T23:32:48.978Z,6.80
2022-10-11T23:35:16.079Z,7.45
2022-10-11T23:37:43.077Z,8.68
2022-10-11T23:40:10.633Z,4.50
2022-10-11T23:42:45.598Z,7.75
2022-10-11T23:45:13.130Z,6.13
2022-10-11T23:47:40.683Z,14.55
2022-10-11T23:52:34.977Z,4.80
2022-10-11T23:55:02.067Z,11.05
2022-10-11T23:57:29.186Z,11.30
2022-10-11T23:59:56.191Z,13.07
